createdAt,value
2019-04-21T00:01:44.141Z,10.30
2019-04-21T00:04:26.054Z,10.30
2019-04-21T00:07:03.283Z,10.20
2019-04-21T00:09:34.525Z,10.20
2019-04-21T00:12:01.455Z,10.10
2019-04-21T00:14:26.356Z,10.10
2019-04-21T00:16:54.187Z,10.00
2019-04-21T00:19:28.445Z,9.90
2019-04-21T00:22:05.915Z,9.90
2019-04-21T00:24:39.068Z,9.80
2019-04-21T00:27:14.142Z,9.80
2019-04-21T00:29:45.212Z,9.70
2019-04-21T00:32:10.493Z,9.70
2019-04-21T00:34:28.080Z,9.60
2019-04-21T00:37:11.030Z,9.60
2019-04-21T00:39:58.762Z,9.50
2019-04-21T00:42:21.399Z,9.50
2019-04-21T00:44:44.893Z,9.50
2019-04-21T00:47:31.669Z,9.50
2019-04-21T00:50:02.270Z,9.50
2019-04-21T00:52:46.171Z,9.40
2019-04-21T00:57:51.930Z,9.30
2019-04-21T01:00:18.773Z,9.30
2019-04-21T01:02:53.228Z,9.20
2019-04-21T01:05:26.921Z,9.10
2019-04-21T01:07:56.231Z,9.00
2019-04-21T01:10:14.890Z,8.90
2019-04-21T01:12:54.669Z,8.90
2019-04-21T01:15:35.262Z,8.90
2019-04-21T01:17:52.151Z,8.90
2019-04-21T01:20:16.472Z,8.90
2019-04-21T01:22:37.558Z,8.90
2019-04-21T01:25:15.914Z,8.80
2019-04-21T01:27:56.419Z,8.80
2019-04-21T01:30:29.762Z,8.80
2019-04-21T01:32:59.576Z,8.80
2019-04-21T01:35:34.993Z,8.80
2019-04-21T01:38:02.049Z,8.80
2019-04-21T01:40:34.892Z,8.80
2019-04-21T01:43:04.801Z,8.80
2019-04-21T01:45:31.894Z,8.70
2019-04-21T01:48:02.501Z,8.70
2019-04-21T01:50:34.420Z,8.70
2019-04-21T01:53:27.458Z,8.70
2019-04-21T01:55:54.981Z,8.70
2019-04-21T01:58:33.189Z,8.70
2019-04-21T02:01:10.256Z,8.70
2019-04-21T02:03:56.833Z,8.70
2019-04-21T02:06:18.497Z,8.70
2019-04-21T02:08:44.817Z,8.60
2019-04-21T02:11:17.040Z,8.50
2019-04-21T02:13:53.350Z,8.50
2019-04-21T02:16:20.214Z,8.40
2019-04-21T02:18:43.725Z,8.40
2019-04-21T02:21:14.788Z,8.30
2019-04-21T02:23:57.712Z,8.30
2019-04-21T02:26:23.176Z,8.30
2019-04-21T02:29:03.267Z,8.30
2019-04-21T02:31:39.584Z,8.20
2019-04-21T02:39:21.106Z,8.10
2019-04-21T02:41:41.725Z,8.00
2019-04-21T02:44:08.683Z,8.00
2019-04-21T02:46:38.009Z,8.00
2019-04-21T02:49:20.019Z,8.00
2019-04-21T02:56:44.202Z,7.90
2019-04-21T02:59:15.222Z,7.90
2019-04-21T03:02:04.087Z,7.90
2019-04-21T03:07:20.108Z,7.80
2019-04-21T03:09:45.860Z,7.70
2019-04-21T03:12:18.134Z,7.70
2019-04-21T03:17:35.856Z,7.60
2019-04-21T03:20:14.712Z,7.50
2019-04-21T03:22:24.285Z,7.50
2019-04-21T03:25:21.333Z,7.50
2019-04-21T03:30:06.575Z,7.40
2019-04-21T03:33:14.040Z,7.40
2019-04-21T03:35:37.798Z,7.40
2019-04-21T03:37:35.376Z,7.40
2019-04-21T03:40:01.425Z,7.30
2019-04-21T03:42:38.962Z,7.30
2019-04-21T03:45:03.633Z,7.20
2019-04-21T03:47:48.296Z,7.10
2019-04-21T03:52:38.831Z,7.10
2019-04-21T03:55:51.338Z,7.00
2019-04-21T04:00:44.941Z,7.00
2019-04-21T04:03:32.403Z,7.00
2019-04-21T04:05:55.596Z,7.00
2019-04-21T04:11:15.142Z,6.90
2019-04-21T04:13:48.035Z,6.90
2019-04-21T04:21:24.313Z,6.90
2019-04-21T04:23:47.232Z,6.90
2019-04-21T04:26:19.114Z,6.90
2019-04-21T04:31:27.771Z,6.90
2019-04-21T04:33:58.146Z,6.90
2019-04-21T04:41:28.868Z,6.90
2019-04-21T04:44:03.277Z,6.90
2019-04-21T04:46:26.947Z,6.90
2019-04-21T04:51:39.951Z,6.90
2019-04-21T04:53:56.169Z,6.90
2019-04-21T05:01:31.986Z,7.00
2019-04-21T05:09:18.554Z,7.20
2019-04-21T05:11:46.784Z,7.20
2019-04-21T05:14:11.136Z,7.30
2019-04-21T05:16:43.177Z,7.30
2019-04-21T05:21:34.325Z,7.30
2019-04-21T05:26:23.081Z,7.40
2019-04-21T05:28:53.893Z,7.40
2019-04-21T05:31:40.059Z,7.50
2019-04-21T05:34:09.532Z,7.60
2019-04-21T05:36:44.321Z,7.60
2019-04-21T05:39:24.535Z,7.70
2019-04-21T05:41:50.793Z,7.70
2019-04-21T05:44:44.390Z,7.80
2019-04-21T05:47:15.931Z,7.90
2019-04-21T05:49:33.704Z,7.90
2019-04-21T05:52:06.642Z,8.00
2019-04-21T05:54:45.674Z,8.20
2019-04-21T05:57:11.835Z,8.30
2019-04-21T05:59:46.794Z,8.50
2019-04-21T06:02:23.948Z,8.60
2019-04-21T06:12:25.282Z,9.30
2019-04-21T06:14:54.788Z,9.50
2019-04-21T06:17:23.756Z,9.70
2019-04-21T06:19:59.086Z,9.90
2019-04-21T06:22:19.539Z,10.10
2019-04-21T06:25:24.293Z,10.40
2019-04-21T06:27:32.758Z,10.60
2019-04-21T06:32:38.158Z,11.10
2019-04-21T06:35:12.478Z,11.40
2019-04-21T06:40:15.444Z,11.90
2019-04-21T06:42:35.297Z,12.20
2019-04-21T06:45:10.472Z,12.40
2019-04-21T06:47:50.188Z,12.70
2019-04-21T06:50:10.724Z,12.90
2019-04-21T06:55:12.633Z,13.50
2019-04-21T06:57:39.985Z,13.70
2019-04-21T07:00:06.170Z,13.90
2019-04-21T07:03:05.684Z,14.20
2019-04-21T07:05:07.563Z,14.40
2019-04-21T07:07:43.305Z,14.60
2019-04-21T07:10:10.288Z,14.90
2019-04-21T07:12:42.944Z,15.10
2019-04-21T07:15:12.149Z,15.20
2019-04-21T07:17:45.659Z,15.50
2019-04-21T07:20:18.550Z,15.70
2019-04-21T07:22:48.095Z,15.80
2019-04-21T07:25:13.891Z,16.00
2019-04-21T07:27:47.883Z,16.10
2019-04-21T07:30:23.100Z,16.20
2019-04-21T07:32:59.474Z,16.40
2019-04-21T07:35:22.118Z,16.60
2019-04-21T07:37:54.235Z,16.80
2019-04-21T07:40:17.789Z,16.90
2019-04-21T07:42:47.854Z,17.10
2019-04-21T07:45:16.864Z,17.20
2019-04-21T07:47:56.125Z,17.40
2019-04-21T07:50:35.081Z,17.50
2019-04-21T07:53:14.812Z,17.70
2019-04-21T07:58:13.165Z,18.00
2019-04-21T08:03:15.477Z,18.30
2019-04-21T08:05:45.808Z,18.60
2019-04-21T08:08:12.089Z,18.80
2019-04-21T08:10:44.165Z,18.90
2019-04-21T08:13:18.824Z,19.10
2019-04-21T08:16:07.344Z,19.20
2019-04-21T08:18:24.480Z,19.40
2019-04-21T08:20:50.757Z,19.60
2019-04-21T08:23:21.574Z,19.70
2019-04-21T08:26:00.633Z,19.70
2019-04-21T08:28:22.489Z,19.90
2019-04-21T08:30:51.917Z,20.00
2019-04-21T08:33:32.476Z,20.10
2019-04-21T08:38:31.319Z,20.50
2019-04-21T08:40:55.855Z,20.50
2019-04-21T08:43:36.987Z,20.60
2019-04-21T08:46:13.742Z,20.70
2019-04-21T08:48:31.752Z,20.90
2019-04-21T08:51:05.549Z,21.00
2019-04-21T08:53:35.763Z,21.10
2019-04-21T08:58:54.157Z,21.30
2019-04-21T09:01:24.005Z,21.50
2019-04-21T09:03:56.675Z,21.60
2019-04-21T09:06:34.296Z,21.60
2019-04-21T09:09:01.538Z,21.70
2019-04-21T09:11:22.639Z,21.80
2019-04-21T09:13:57.135Z,22.00
2019-04-21T09:16:26.449Z,22.10
2019-04-21T09:18:54.078Z,22.30
2019-04-21T09:21:31.362Z,22.50
2019-04-21T09:23:56.107Z,22.70
2019-04-21T09:26:32.151Z,22.80
2019-04-21T09:28:52.120Z,23.10
2019-04-21T09:31:19.237Z,23.60
2019-04-21T09:33:50.300Z,24.30
2019-04-21T09:36:20.146Z,24.50
2019-04-21T09:38:57.414Z,24.50
2019-04-21T09:41:20.835Z,24.80
2019-04-21T09:43:52.115Z,25.10
2019-04-21T09:46:18.820Z,26.00
2019-04-21T09:48:55.450Z,26.70
2019-04-21T09:51:19.984Z,27.20
2019-04-21T09:53:57.232Z,27.10
2019-04-21T09:56:31.157Z,27.30
2019-04-21T09:58:57.377Z,27.60
2019-04-21T10:01:28.685Z,27.90
2019-04-21T10:03:58.132Z,28.70
2019-04-21T10:06:23.799Z,28.90
2019-04-21T10:08:58.535Z,29.00
2019-04-21T10:11:24.571Z,28.90
2019-04-21T10:13:55.073Z,28.80
2019-04-21T10:16:29.738Z,29.10
2019-04-21T10:18:58.927Z,29.70
2019-04-21T10:21:29.295Z,30.00
2019-04-21T10:23:59.769Z,30.60
2019-04-21T10:26:30.472Z,31.10
2019-04-21T10:29:08.301Z,31.00
2019-04-21T10:31:30.572Z,31.00
2019-04-21T10:34:00.999Z,31.40
2019-04-21T10:36:30.994Z,31.90
2019-04-21T10:39:01.096Z,31.90
2019-04-21T10:41:30.722Z,31.40
2019-04-21T10:44:01.022Z,31.30
2019-04-21T10:46:30.814Z,31.50
2019-04-21T10:49:01.406Z,31.60
2019-04-21T10:51:30.903Z,31.80
2019-04-21T10:53:59.974Z,31.20
2019-04-21T10:56:35.020Z,31.20
2019-04-21T10:59:00.346Z,31.80
2019-04-21T11:01:29.528Z,32.20
2019-04-21T11:04:22.785Z,32.30
2019-04-21T11:06:48.221Z,31.90
2019-04-21T11:09:17.934Z,32.20
2019-04-21T11:11:49.898Z,32.40
2019-04-21T11:14:18.275Z,32.50
2019-04-21T11:16:49.280Z,32.90
2019-04-21T11:19:18.197Z,33.60
2019-04-21T11:21:47.229Z,34.10
2019-04-21T11:24:18.031Z,33.70
2019-04-21T11:26:47.762Z,33.60
2019-04-21T11:29:17.164Z,33.60
2019-04-21T11:31:47.294Z,34.00
2019-04-21T11:34:16.515Z,34.10
2019-04-21T11:36:45.962Z,34.10
2019-04-21T11:39:30.762Z,33.50
2019-04-21T11:41:51.900Z,33.60
2019-04-21T11:44:23.184Z,33.60
2019-04-21T11:46:52.205Z,33.70
2019-04-21T11:49:22.349Z,33.70
2019-04-21T11:51:51.424Z,34.00
2019-04-21T11:54:20.433Z,33.90
2019-04-21T11:56:50.670Z,34.00
2019-04-21T11:59:19.704Z,34.60
2019-04-21T12:01:49.782Z,34.70
2019-04-21T12:04:21.170Z,35.30
2019-04-21T12:06:52.178Z,35.90
2019-04-21T12:09:21.074Z,35.80
2019-04-21T12:11:51.432Z,35.80
2019-04-21T12:14:21.717Z,35.40
2019-04-21T12:16:50.931Z,35.40
2019-04-21T12:19:20.790Z,35.20
2019-04-21T12:22:02.402Z,35.50
2019-04-21T12:24:21.518Z,35.50
2019-04-21T12:26:51.696Z,35.90
2019-04-21T12:29:20.881Z,36.20
2019-04-21T12:31:51.747Z,36.90
2019-04-21T12:34:21.861Z,37.20
2019-04-21T12:36:54.957Z,37.40
2019-04-21T12:39:25.097Z,37.30
2019-04-21T12:41:54.364Z,36.80
2019-04-21T12:44:24.594Z,35.80
2019-04-21T12:46:54.068Z,35.80
2019-04-21T12:49:23.242Z,35.90
2019-04-21T12:51:53.453Z,35.50
2019-04-21T12:54:23.781Z,35.20
2019-04-21T12:56:53.819Z,35.40
2019-04-21T12:59:23.046Z,35.80
2019-04-21T13:01:52.843Z,36.00
2019-04-21T13:04:21.890Z,36.50
2019-04-21T13:06:51.786Z,36.80
2019-04-21T13:09:22.242Z,37.00
2019-04-21T13:11:51.506Z,37.10
2019-04-21T13:14:20.438Z,37.40
2019-04-21T13:16:49.703Z,37.40
2019-04-21T13:19:18.835Z,37.70
2019-04-21T13:21:48.089Z,38.10
2019-04-21T13:24:17.827Z,37.70
2019-04-21T13:26:52.437Z,37.40
2019-04-21T13:29:18.418Z,37.20
2019-04-21T13:31:48.083Z,37.00
2019-04-21T13:34:18.002Z,37.20
2019-04-21T13:36:47.736Z,37.20
2019-04-21T13:42:02.773Z,37.50
2019-04-21T13:44:24.445Z,37.30
2019-04-21T13:46:54.572Z,38.10
2019-04-21T13:49:23.674Z,38.90
2019-04-21T13:51:54.088Z,38.90
2019-04-21T13:54:25.419Z,38.90
2019-04-21T13:56:54.555Z,38.30
2019-04-21T13:59:24.474Z,38.30
2019-04-21T14:01:54.004Z,37.30
2019-04-21T14:04:23.519Z,37.40
2019-04-21T14:06:52.547Z,37.20
2019-04-21T14:09:21.936Z,36.90
2019-04-21T14:11:54.060Z,36.60
2019-04-21T14:14:21.944Z,36.70
2019-04-21T14:16:52.066Z,37.10
2019-04-21T14:19:21.457Z,37.60
2019-04-21T14:21:52.729Z,37.80
2019-04-21T14:24:22.534Z,38.10
2019-04-21T14:26:52.229Z,38.30
2019-04-21T14:29:21.749Z,38.00
2019-04-21T14:31:50.824Z,38.30
2019-04-21T14:34:19.936Z,37.90
2019-04-21T14:36:48.955Z,37.30
2019-04-21T14:39:18.560Z,37.50
2019-04-21T14:41:48.312Z,37.10
2019-04-21T14:44:18.645Z,37.20
2019-04-21T14:46:55.335Z,37.40
2019-04-21T14:49:41.990Z,36.30
2019-04-21T14:52:19.120Z,35.80
2019-04-21T14:54:50.937Z,35.70
2019-04-21T14:57:21.227Z,35.90
2019-04-21T14:59:51.082Z,35.80
2019-04-21T15:02:20.340Z,35.80
2019-04-21T15:04:49.447Z,35.90
2019-04-21T15:07:19.255Z,36.30
2019-04-21T15:10:01.172Z,36.20
2019-04-21T15:12:20.076Z,36.00
2019-04-21T15:14:49.848Z,35.80
2019-04-21T15:17:21.195Z,34.90
2019-04-21T15:19:58.618Z,34.20
2019-04-21T15:22:20.829Z,34.20
2019-04-21T15:24:50.194Z,34.40
2019-04-21T15:27:19.279Z,34.70
2019-04-21T15:29:48.754Z,34.10
2019-04-21T15:32:18.795Z,34.10
2019-04-21T15:34:47.943Z,33.80
2019-04-21T15:37:17.911Z,33.00
2019-04-21T15:39:47.021Z,32.60
2019-04-21T15:42:16.714Z,32.10
2019-04-21T15:44:45.906Z,31.50
2019-04-21T15:47:15.863Z,30.80
2019-04-21T15:50:00.894Z,29.90
2019-04-21T15:52:25.585Z,28.70
2019-04-21T15:54:56.927Z,28.00
2019-04-21T15:57:42.828Z,27.40
2019-04-21T16:00:31.032Z,27.00
2019-04-21T16:03:00.415Z,26.80
2019-04-21T16:05:30.856Z,26.60
2019-04-21T16:08:00.360Z,26.10
2019-04-21T16:10:41.516Z,25.60
2019-04-21T16:13:03.469Z,25.20
2019-04-21T16:15:32.738Z,25.00
2019-04-21T16:18:01.802Z,24.80
2019-04-21T16:20:32.167Z,24.50
2019-04-21T16:23:02.277Z,24.40
2019-04-21T16:25:32.714Z,24.40
2019-04-21T16:28:03.388Z,24.30
2019-04-21T16:30:32.490Z,24.20
2019-04-21T16:33:01.942Z,23.90
2019-04-21T16:35:31.695Z,23.80
2019-04-21T16:38:02.438Z,23.80
2019-04-21T16:40:44.500Z,23.80
2019-04-21T16:43:03.803Z,23.70
2019-04-21T16:45:32.976Z,23.70
2019-04-21T16:48:03.422Z,23.70
2019-04-21T16:50:33.852Z,23.50
2019-04-21T16:53:16.514Z,23.50
2019-04-21T16:55:53.203Z,23.40
2019-04-21T16:58:28.967Z,23.40
2019-04-21T17:01:15.949Z,23.40
2019-04-21T17:03:42.556Z,23.30
2019-04-21T17:06:13.106Z,23.30
2019-04-21T17:08:43.053Z,23.20
2019-04-21T17:11:18.795Z,23.10
2019-04-21T17:13:43.091Z,23.00
2019-04-21T17:16:40.630Z,23.00
2019-04-21T17:18:53.709Z,22.90
2019-04-21T17:21:15.226Z,22.80
2019-04-21T17:23:44.342Z,22.80
2019-04-21T17:26:13.299Z,22.80
2019-04-21T17:28:42.678Z,22.70
2019-04-21T17:31:12.821Z,22.70
2019-04-21T17:33:43.428Z,22.60
2019-04-21T17:36:12.518Z,22.60
2019-04-21T17:38:41.803Z,22.50
2019-04-21T17:41:21.912Z,22.50
2019-04-21T17:43:43.555Z,22.40
2019-04-21T17:46:19.974Z,22.30
2019-04-21T17:48:43.374Z,22.30
2019-04-21T17:51:17.360Z,22.20
2019-04-21T17:53:57.651Z,22.10
2019-04-21T17:56:55.249Z,22.00
2019-04-21T17:59:16.436Z,21.80
2019-04-21T18:01:51.668Z,21.70
2019-04-21T18:04:18.870Z,21.60
2019-04-21T18:06:54.317Z,21.50
2019-04-21T18:09:36.761Z,21.40
2019-04-21T18:12:01.437Z,21.30
2019-04-21T18:14:11.351Z,21.20
2019-04-21T18:16:44.822Z,21.10
2019-04-21T18:19:12.988Z,21.00
2019-04-21T18:22:03.040Z,20.90
2019-04-21T18:24:38.919Z,20.80
2019-04-21T18:27:07.032Z,20.70
2019-04-21T18:29:33.927Z,20.60
2019-04-21T18:32:03.059Z,20.50
2019-04-21T18:34:44.306Z,20.40
2019-04-21T18:37:33.121Z,20.30
2019-04-21T18:40:06.787Z,20.20
2019-04-21T18:42:45.492Z,20.00
2019-04-21T18:45:44.643Z,20.00
2019-04-21T18:48:02.635Z,19.80
2019-04-21T18:50:45.932Z,19.70
2019-04-21T18:53:32.549Z,19.60
2019-04-21T18:55:50.501Z,19.50
2019-04-21T18:58:16.385Z,19.40
2019-04-21T19:00:46.007Z,19.30
2019-04-21T19:03:20.880Z,19.30
2019-04-21T19:05:52.064Z,19.20
2019-04-21T19:08:31.472Z,19.10
2019-04-21T19:11:10.456Z,19.00
2019-04-21T19:13:57.143Z,18.90
2019-04-21T19:16:29.229Z,18.90
2019-04-21T19:21:10.142Z,18.80
2019-04-21T19:24:01.813Z,18.70
2019-04-21T19:26:21.714Z,18.60
2019-04-21T19:28:47.638Z,18.60
2019-04-21T19:31:17.088Z,18.50
2019-04-21T19:33:36.561Z,18.40
2019-04-21T19:35:57.517Z,18.30
2019-04-21T19:38:35.031Z,18.30
2019-04-21T19:41:15.502Z,18.20
2019-04-21T19:43:49.402Z,18.10
2019-04-21T19:46:15.699Z,18.10
2019-04-21T19:48:59.113Z,18.00
2019-04-21T19:51:17.212Z,17.90
2019-04-21T19:53:44.679Z,17.90
2019-04-21T19:56:01.715Z,17.80
2019-04-21T19:58:33.863Z,17.70
2019-04-21T20:01:01.667Z,17.60
2019-04-21T20:03:30.788Z,17.50
2019-04-21T20:06:10.582Z,17.50
2019-04-21T20:08:43.391Z,17.40
2019-04-21T20:11:19.088Z,17.40
2019-04-21T20:14:03.275Z,17.30
2019-04-21T20:16:27.386Z,17.30
2019-04-21T20:18:43.574Z,17.20
2019-04-21T20:21:08.014Z,17.10
2019-04-21T20:23:39.718Z,17.00
2019-04-21T20:26:11.480Z,17.00
2019-04-21T20:28:48.930Z,16.90
2019-04-21T20:31:23.672Z,16.90
2019-04-21T20:34:00.629Z,16.80
2019-04-21T20:36:35.275Z,16.80
2019-04-21T20:38:50.180Z,16.80
2019-04-21T20:41:26.997Z,16.70
2019-04-21T20:44:01.728Z,16.60
2019-04-21T20:46:35.048Z,16.50
2019-04-21T20:49:00.033Z,16.40
2019-04-21T20:51:36.250Z,16.30
2019-04-21T20:54:02.928Z,16.20
2019-04-21T20:56:34.494Z,16.10
2019-04-21T20:59:07.532Z,16.00
2019-04-21T21:01:35.894Z,15.90
2019-04-21T21:04:03.436Z,15.90
2019-04-21T21:06:36.087Z,15.90
2019-04-21T21:09:07.303Z,15.80
2019-04-21T21:11:41.093Z,15.80
2019-04-21T21:14:11.350Z,15.70
2019-04-21T21:16:48.920Z,15.70
2019-04-21T21:19:18.504Z,15.70
2019-04-21T21:21:43.124Z,15.70
2019-04-21T21:24:08.540Z,15.70
2019-04-21T21:26:44.076Z,15.60
2019-04-21T21:29:18.357Z,15.60
2019-04-21T21:31:49.083Z,15.60
2019-04-21T21:34:25.758Z,15.50
2019-04-21T21:36:50.648Z,15.50
2019-04-21T21:39:15.545Z,15.40
2019-04-21T21:41:34.267Z,15.40
2019-04-21T21:44:07.399Z,15.30
2019-04-21T21:46:44.505Z,15.20
2019-04-21T21:49:22.630Z,15.10
2019-04-21T21:51:48.419Z,15.00
2019-04-21T21:54:07.501Z,14.90
2019-04-21T21:56:46.865Z,14.80
2019-04-21T21:59:33.027Z,14.80
2019-04-21T22:01:57.856Z,14.70
2019-04-21T22:04:30.709Z,14.60
2019-04-21T22:07:07.249Z,14.50
2019-04-21T22:09:42.002Z,14.50
2019-04-21T22:12:14.212Z,14.40
2019-04-21T22:17:54.041Z,14.40
2019-04-21T22:20:33.035Z,14.40
2019-04-21T22:22:51.989Z,14.40
2019-04-21T22:25:20.661Z,14.40
2019-04-21T22:31:15.459Z,14.40
2019-04-21T22:33:41.853Z,14.50
2019-04-21T22:36:21.624Z,14.50
2019-04-21T22:38:52.196Z,14.50
2019-04-21T22:41:24.527Z,14.60
2019-04-21T22:43:44.602Z,14.60
2019-04-21T22:46:14.040Z,14.60
2019-04-21T22:48:45.291Z,14.50
2019-04-21T22:51:20.463Z,14.50
2019-04-21T22:53:48.833Z,14.50
2019-04-21T22:56:20.318Z,14.50
2019-04-21T22:58:46.569Z,14.50
2019-04-21T23:01:19.145Z,14.40
2019-04-21T23:03:53.635Z,14.40
2019-04-21T23:06:22.006Z,14.40
2019-04-21T23:08:49.858Z,14.40
2019-04-21T23:11:19.739Z,14.40
2019-04-21T23:13:55.626Z,14.30
2019-04-21T23:16:26.139Z,14.20
2019-04-21T23:19:10.991Z,14.10
2019-04-21T23:21:36.373Z,14.00
2019-04-21T23:24:11.759Z,13.90
2019-04-21T23:26:39.544Z,13.80
2019-04-21T23:29:15.548Z,13.60
2019-04-21T23:31:40.280Z,13.50
2019-04-21T23:33:54.739Z,13.40
2019-04-21T23:36:28.179Z,13.30
2019-04-21T23:38:56.700Z,13.20
2019-04-21T23:41:27.350Z,13.10
2019-04-21T23:44:03.112Z,13.00
2019-04-21T23:46:31.973Z,12.90
2019-04-21T23:49:12.416Z,12.80
2019-04-21T23:51:41.019Z,12.70
2019-04-21T23:53:59.516Z,12.60
2019-04-21T23:56:34.027Z,12.60
2019-04-21T23:59:03.204Z,12.50
